createdAt,value
2018-12-01T00:00:24.470Z,100931.93
2018-12-01T00:01:02.388Z,100936.77
2018-12-01T00:01:40.051Z,100931.66
2018-12-01T00:02:18.053Z,100927.89
2018-12-01T00:02:55.956Z,100930.60
2018-12-01T00:03:33.866Z,100928.98
2018-12-01T00:04:11.804Z,100925.22
2018-12-01T00:04:49.535Z,100932.74
2018-12-01T00:05:27.353Z,100929.78
2018-12-01T00:06:05.125Z,100929.78
2018-12-01T00:06:42.859Z,100927.89
2018-12-01T00:07:20.724Z,100929.77
2018-12-01T00:07:58.781Z,100932.98
2018-12-01T00:08:36.936Z,100926.80
2018-12-01T00:09:14.832Z,100924.13
2018-12-01T00:09:52.549Z,100926.00
2018-12-01T00:10:30.399Z,100922.50
2018-12-01T00:11:08.469Z,100928.41
2018-12-01T00:11:46.238Z,100926.52
2018-12-01T00:12:24.124Z,100927.59
2018-12-01T00:13:01.889Z,100929.73
2018-12-01T00:13:39.944Z,100927.57
2018-12-01T00:14:17.777Z,100928.11
2018-12-01T00:14:55.600Z,100928.64
2018-12-01T00:15:33.891Z,100929.50
2018-12-01T00:16:11.860Z,100928.94
2018-12-01T00:16:49.839Z,100935.13
2018-12-01T00:17:27.948Z,100931.61
2018-12-01T00:18:05.716Z,100929.45
2018-12-01T00:18:43.469Z,100930.78
2018-12-01T00:19:21.255Z,100932.39
2018-12-01T00:19:59.166Z,100934.27
2018-12-01T00:20:38.818Z,100936.41
2018-12-01T00:21:17.395Z,100936.14
2018-12-01T00:21:55.248Z,100932.09
2018-12-01T00:22:33.029Z,100933.16
2018-12-01T00:23:12.086Z,100936.91
2018-12-01T00:23:49.907Z,100935.02
2018-12-01T00:24:27.802Z,100938.50
2018-12-01T00:25:05.569Z,100937.41
2018-12-01T00:25:43.298Z,100942.27
2018-12-01T00:26:21.139Z,100935.52
2018-12-01T00:26:59.143Z,100939.00
2018-12-01T00:27:37.112Z,100946.53
2018-12-01T00:28:14.958Z,100942.19
2018-12-01T00:28:52.768Z,100941.13
2018-12-01T00:29:30.528Z,100948.65
2018-12-01T00:30:18.509Z,100952.97
2018-12-01T00:30:56.234Z,100949.45
2018-12-01T00:31:33.975Z,100943.50
2018-12-01T00:32:12.013Z,100945.64
2018-12-01T00:32:50.691Z,100942.10
2018-12-01T00:33:28.501Z,100952.88
2018-12-01T00:34:06.239Z,100935.33
2018-12-01T00:34:44.040Z,100935.33
2018-12-01T00:35:21.939Z,100940.95
2018-12-01T00:35:59.706Z,100949.83
2018-12-01T00:36:37.556Z,100942.80
2018-12-01T00:37:15.387Z,100948.70
2018-12-01T00:37:53.104Z,100948.70
2018-12-01T00:38:31.159Z,100950.84
2018-12-01T00:39:10.862Z,100950.84
2018-12-01T00:39:48.609Z,100948.14
2018-12-01T00:40:26.437Z,100949.75
2018-12-01T00:41:04.261Z,100949.48
2018-12-01T00:41:42.161Z,100956.74
2018-12-01T00:42:19.938Z,100957.00
2018-12-01T00:42:58.078Z,100959.18
2018-12-01T00:43:36.036Z,100957.00
2018-12-01T00:44:14.118Z,100960.48
2018-12-01T00:44:52.289Z,100962.90
2018-12-01T00:45:30.421Z,100967.22
2018-12-01T00:46:08.405Z,100974.18
2018-12-01T00:46:46.418Z,100974.18
2018-12-01T00:47:24.228Z,100981.17
2018-12-01T00:48:01.977Z,100981.17
2018-12-01T00:48:39.685Z,100976.02
2018-12-01T00:49:17.469Z,100971.14
2018-12-01T00:49:55.322Z,100980.82
2018-12-01T00:50:33.244Z,100982.91
2018-12-01T00:51:11.153Z,100982.91
2018-12-01T00:51:48.876Z,100979.92
2018-12-01T00:52:26.684Z,100977.48
2018-12-01T00:53:04.380Z,100984.97
2018-12-01T00:53:42.003Z,100986.58
2018-12-01T00:54:19.887Z,100986.58
2018-12-01T00:54:57.610Z,100988.11
2018-12-01T00:55:35.439Z,100984.03
2018-12-01T00:56:13.178Z,100993.44
2018-12-01T00:56:51.036Z,100993.44
2018-12-01T00:57:28.801Z,100978.90
2018-12-01T00:58:06.704Z,100989.07
2018-12-01T00:58:44.438Z,100999.50
2018-12-01T00:59:22.249Z,100992.20
2018-12-01T01:00:00.026Z,100991.40
2018-12-01T01:00:37.824Z,100991.40
2018-12-01T01:01:15.656Z,100995.59
2018-12-01T01:01:53.612Z,100992.89
2018-12-01T01:02:37.205Z,101004.41
2018-12-01T01:03:15.101Z,100997.11
2018-12-01T01:03:52.913Z,101005.16
2018-12-01T01:04:30.760Z,101003.52
2018-12-01T01:05:08.553Z,101003.52
2018-12-01T01:05:46.434Z,101004.80
2018-12-01T01:06:24.827Z,101008.05
2018-12-01T01:07:02.824Z,101000.23
2018-12-01T01:07:40.690Z,101002.35
2018-12-01T01:08:18.632Z,101002.35
2018-12-01T01:08:56.685Z,101003.41
2018-12-01T01:09:34.340Z,101011.45
2018-12-01T01:10:13.349Z,101002.58
2018-12-01T01:10:51.310Z,101010.33
2018-12-01T01:11:29.015Z,101004.95
2018-12-01T01:12:06.947Z,100996.48
2018-12-01T01:12:45.408Z,101004.52
2018-12-01T01:13:23.292Z,101012.85
2018-12-01T01:14:01.149Z,101003.61
2018-12-01T01:14:39.028Z,100996.34
2018-12-01T01:15:16.692Z,101009.49
2018-12-01T01:15:54.447Z,101008.39
2018-12-01T01:16:32.258Z,101002.44
2018-12-01T01:17:10.310Z,101002.44
2018-12-01T01:17:48.022Z,101002.70
2018-12-01T01:18:25.839Z,101007.99
2018-12-01T01:19:03.922Z,101011.16
2018-12-01T01:19:41.887Z,101011.16
2018-12-01T01:20:20.728Z,101013.03
2018-12-01T01:20:58.617Z,101009.77
2018-12-01T01:21:36.318Z,101016.20
2018-12-01T01:22:14.199Z,101015.35
2018-12-01T01:22:52.294Z,101009.91
2018-12-01T01:23:30.222Z,101013.92
2018-12-01T01:24:08.110Z,101017.39
2018-12-01T01:24:46.005Z,101019.80
2018-12-01T01:25:23.703Z,101018.66
2018-12-01T01:26:01.608Z,101017.77
2018-12-01T01:26:39.555Z,101017.47
2018-12-01T01:27:17.505Z,101017.69
2018-12-01T01:27:55.259Z,101020.39
2018-12-01T01:28:33.102Z,101013.83
2018-12-01T01:29:10.908Z,101022.75
2018-12-01T01:29:48.671Z,101021.86
2018-12-01T01:30:26.782Z,101021.52
2018-12-01T01:31:04.556Z,101022.83
2018-12-01T01:31:42.477Z,101020.33
2018-12-01T01:32:20.151Z,101015.45
2018-12-01T01:33:31.615Z,101014.61
2018-12-01T01:34:09.546Z,101018.10
2018-12-01T01:34:47.291Z,101020.22
2018-12-01T01:35:25.030Z,101025.55
2018-12-01T01:36:02.855Z,101016.66
2018-12-01T01:36:40.680Z,101018.02
2018-12-01T01:37:18.401Z,101017.77
2018-12-01T01:37:56.184Z,101020.47
2018-12-01T01:38:33.863Z,101024.28
2018-12-01T01:39:12.099Z,101024.53
2018-12-01T01:39:50.024Z,101019.32
2018-12-01T01:40:27.787Z,101021.48
2018-12-01T01:41:08.468Z,101027.66
2018-12-01T01:41:46.222Z,101024.09
2018-12-01T01:42:23.942Z,101026.45
2018-12-01T01:43:01.678Z,101026.41
2018-12-01T01:43:39.962Z,101021.48
2018-12-01T01:44:17.866Z,101024.95
2018-12-01T01:44:55.543Z,101026.25
2018-12-01T01:45:33.248Z,101026.45
2018-12-01T01:46:10.984Z,101025.86
2018-12-01T01:46:48.820Z,101027.47
2018-12-01T01:47:26.704Z,101028.77
2018-12-01T01:48:04.467Z,101029.83
2018-12-01T01:48:42.242Z,101035.50
2018-12-01T01:49:20.058Z,101034.39
2018-12-01T01:49:57.820Z,101032.47
2018-12-01T01:50:35.557Z,101031.11
2018-12-01T01:51:15.576Z,101035.95
2018-12-01T01:51:53.483Z,101034.55
2018-12-01T01:52:31.299Z,101030.94
2018-12-01T01:53:09.156Z,101038.52
2018-12-01T01:53:46.931Z,101033.05
2018-12-01T01:54:24.780Z,101036.27
2018-12-01T01:55:02.678Z,101037.56
2018-12-01T01:55:40.428Z,101038.38
2018-12-01T01:56:18.152Z,101033.42
2018-12-01T01:56:55.888Z,101037.69
2018-12-01T01:57:33.722Z,101038.19
2018-12-01T01:58:11.468Z,101034.38
2018-12-01T01:58:49.317Z,101034.88
2018-12-01T01:59:27.001Z,101036.98
2018-12-01T02:00:04.856Z,101032.86
2018-12-01T02:00:42.765Z,101034.72
2018-12-01T02:01:20.550Z,101028.94
2018-12-01T02:01:58.412Z,101036.52
2018-12-01T02:02:36.369Z,101031.09
2018-12-01T02:03:17.137Z,101030.59
2018-12-01T02:03:54.825Z,101035.27
2018-12-01T02:04:32.738Z,101029.95
2018-12-01T02:05:10.618Z,101035.38
2018-12-01T02:05:48.441Z,101034.27
2018-12-01T02:06:26.451Z,101037.48
2018-12-01T02:07:04.338Z,101038.48
2018-12-01T02:07:42.635Z,101040.87
2018-12-01T02:08:20.329Z,101040.51
2018-12-01T02:08:58.202Z,101039.05
2018-12-01T02:09:36.137Z,101039.82
2018-12-01T02:10:14.852Z,101037.61
2018-12-01T02:10:52.845Z,101035.64
2018-12-01T02:11:30.686Z,101042.61
2018-12-01T02:12:08.604Z,101040.13
2018-12-01T02:12:46.416Z,101042.23
2018-12-01T02:13:24.087Z,101040.02
2018-12-01T02:14:01.927Z,101042.73
2018-12-01T02:14:39.864Z,101042.11
2018-12-01T02:15:18.031Z,101039.90
2018-12-01T02:15:55.720Z,101037.93
2018-12-01T02:16:33.635Z,101037.31
2018-12-01T02:17:11.534Z,101041.33
2018-12-01T02:17:49.383Z,101038.59
2018-12-01T02:18:27.203Z,101040.08
2018-12-01T02:19:04.972Z,101032.92
2018-12-01T02:19:42.872Z,101042.42
2018-12-01T02:20:21.161Z,101039.45
2018-12-01T02:20:58.994Z,101037.86
2018-12-01T02:21:36.682Z,101038.66
2018-12-01T02:22:14.392Z,101039.45
2018-12-01T02:22:52.352Z,101034.03
2018-12-01T02:23:30.048Z,101032.37
2018-12-01T02:24:08.125Z,101032.30
2018-12-01T02:24:46.029Z,101043.41
2018-12-01T02:25:23.763Z,101036.25
2018-12-01T02:26:01.480Z,101032.71
2018-12-01T02:26:39.227Z,101033.23
2018-12-01T02:27:16.994Z,101028.55
2018-12-01T02:27:54.966Z,101030.89
2018-12-01T02:28:32.666Z,101033.23
2018-12-01T02:29:10.333Z,101028.84
2018-12-01T02:29:48.089Z,101025.89
2018-12-01T02:30:25.832Z,101026.63
2018-12-01T02:31:03.518Z,101026.56
2018-12-01T02:31:41.358Z,101025.94
2018-12-01T02:32:19.064Z,101022.39
2018-12-01T02:32:56.929Z,101018.81
2018-12-01T02:33:34.884Z,101018.75
2018-12-01T02:34:12.636Z,101021.15
2018-12-01T02:34:50.337Z,101013.73
2018-12-01T02:35:31.819Z,101012.31
2018-12-01T02:36:09.864Z,101012.25
2018-12-01T02:36:47.713Z,101009.78
2018-12-01T02:37:25.946Z,101005.63
2018-12-01T02:38:04.028Z,101008.00
2018-12-01T02:38:42.242Z,101009.30
2018-12-01T02:39:20.193Z,101008.45
2018-12-01T02:39:58.032Z,101006.47
2018-12-01T02:40:36.274Z,101000.73
2018-12-01T02:41:14.206Z,100994.66
2018-12-01T02:41:52.356Z,100992.13
2018-12-01T02:42:30.238Z,100995.08
2018-12-01T02:43:08.447Z,100996.93
2018-12-01T02:43:46.291Z,100994.21
2018-12-01T02:45:08.928Z,100995.22
2018-12-01T02:46:20.176Z,100994.59
2018-12-01T02:47:16.437Z,100991.88
2018-12-01T02:47:54.421Z,100990.52
2018-12-01T02:48:32.457Z,100992.19
2018-12-01T02:49:10.727Z,100985.08
2018-12-01T02:49:48.613Z,100985.32
2018-12-01T02:50:32.443Z,100987.73
2018-12-01T02:51:10.951Z,100985.18
2018-12-01T02:51:48.935Z,100985.66
2018-12-01T02:52:26.957Z,100983.19
2018-12-01T02:53:05.420Z,100978.63
2018-12-01T02:53:43.300Z,100979.59
2018-12-01T02:54:21.455Z,100972.73
2018-12-01T02:54:59.655Z,100977.61
2018-12-01T02:55:37.775Z,100971.86
2018-12-01T02:56:15.919Z,100977.53
2018-12-01T02:56:53.813Z,100974.26
2018-12-01T02:57:31.781Z,100978.30
2018-12-01T02:58:10.375Z,100975.50
2018-12-01T02:58:48.403Z,100977.59
2018-12-01T02:59:26.428Z,100977.52
2018-12-01T03:00:04.777Z,100976.91
2018-12-01T03:00:43.029Z,100985.55
2018-12-01T03:01:21.301Z,100982.27
2018-12-01T03:01:59.270Z,100983.15
2018-12-01T03:02:37.387Z,100986.42
2018-12-01T03:03:15.520Z,100988.59
2018-12-01T03:03:53.501Z,100985.58
2018-12-01T03:04:31.719Z,100990.01
2018-12-01T03:05:11.057Z,100989.59
2018-12-01T03:05:49.221Z,100984.72
2018-12-01T03:06:27.185Z,100998.87
2018-12-01T03:07:05.251Z,100992.56
2018-12-01T03:07:43.449Z,100990.08
2018-12-01T03:08:21.334Z,100988.09
2018-12-01T03:08:59.248Z,100983.66
2018-12-01T03:09:37.367Z,100981.73
2018-12-01T03:10:19.224Z,100981.91
2018-12-01T03:10:57.931Z,100978.63
2018-12-01T03:11:35.857Z,100981.03
2018-12-01T03:12:13.904Z,100978.55
2018-12-01T03:12:52.400Z,100974.98
2018-12-01T03:13:30.407Z,100975.72
2018-12-01T03:14:08.484Z,100975.08
2018-12-01T03:14:46.722Z,100973.72
2018-12-01T03:15:24.862Z,100971.97
2018-12-01T03:16:02.880Z,100967.89
2018-12-01T03:16:40.837Z,100972.24
2018-12-01T03:17:18.812Z,100971.37
2018-12-01T03:17:56.790Z,100971.37
2018-12-01T03:18:34.713Z,100970.88
2018-12-01T03:19:12.579Z,100970.92
2018-12-01T03:19:50.613Z,100971.48
2018-12-01T03:20:28.702Z,100969.64
2018-12-01T03:21:06.701Z,100966.76
2018-12-01T03:21:44.740Z,100967.00
2018-12-01T03:22:22.778Z,100967.56
2018-12-01T03:23:01.325Z,100965.40
2018-12-01T03:23:39.494Z,100960.20
2018-12-01T03:24:17.621Z,100965.56
2018-12-01T03:24:55.670Z,100959.88
2018-12-01T03:25:33.718Z,100960.85
2018-12-01T03:26:11.716Z,100954.56
2018-12-01T03:26:49.746Z,100958.64
2018-12-01T03:27:36.357Z,100946.97
2018-12-01T03:28:14.178Z,100953.45
2018-12-01T03:28:52.144Z,100952.33
2018-12-01T03:29:30.074Z,100950.89
2018-12-01T03:30:13.133Z,100944.89
2018-12-01T03:30:51.118Z,100941.85
2018-12-01T03:31:29.088Z,100946.25
2018-12-01T03:32:07.136Z,100944.02
2018-12-01T03:32:45.376Z,100937.45
2018-12-01T03:33:23.256Z,100941.14
2018-12-01T03:34:01.242Z,100936.66
2018-12-01T03:34:39.207Z,100939.38
2018-12-01T03:35:17.157Z,100939.62
2018-12-01T03:35:55.413Z,100942.82
2018-12-01T03:36:33.504Z,100936.81
2018-12-01T03:37:11.344Z,100938.37
2018-12-01T03:37:50.688Z,100932.05
2018-12-01T03:38:28.717Z,100933.56
2018-12-01T03:39:07.315Z,100931.33
2018-12-01T03:39:45.374Z,100934.28
2018-12-01T03:40:23.981Z,100931.48
2018-12-01T03:41:02.168Z,100928.45
2018-12-01T03:41:40.176Z,100928.92
2018-12-01T03:42:18.084Z,100924.52
2018-12-01T03:42:56.620Z,100920.28
2018-12-01T03:43:34.515Z,100923.00
2018-12-01T03:44:12.252Z,100921.16
2018-12-01T03:44:50.009Z,100923.33
2018-12-01T03:45:28.243Z,100917.48
2018-12-01T03:46:06.163Z,100918.76
2018-12-01T03:46:44.334Z,100915.95
2018-12-01T03:47:22.338Z,100920.84
2018-12-01T03:48:00.332Z,100918.03
2018-12-01T03:48:38.203Z,100917.23
2018-12-01T03:49:16.217Z,100921.18
2018-12-01T03:49:54.343Z,100914.89
2018-12-01T03:50:32.410Z,100915.36
2018-12-01T03:51:10.359Z,100912.32
2018-12-01T03:51:48.277Z,100916.16
2018-12-01T03:52:26.874Z,100910.80
2018-12-01T03:53:04.714Z,100901.89
2018-12-01T03:53:42.668Z,100907.16
2018-12-01T03:54:20.589Z,100898.03
2018-12-01T03:54:58.504Z,100901.55
2018-12-01T03:55:36.885Z,100901.39
2018-12-01T03:56:14.698Z,100900.36
2018-12-01T03:56:52.498Z,100895.88
2018-12-01T03:57:30.225Z,100896.59
2018-12-01T03:58:08.154Z,100893.39
2018-12-01T03:58:47.546Z,100893.87
2018-12-01T03:59:25.535Z,100896.20
2018-12-01T04:00:03.423Z,100892.67
2018-12-01T04:00:41.352Z,100893.71
2018-12-01T04:01:19.553Z,100892.59
2018-12-01T04:01:57.562Z,100897.09
2018-12-01T04:02:36.935Z,100893.49
2018-12-01T04:03:14.871Z,100889.89
2018-12-01T04:03:53.035Z,100887.97
2018-12-01T04:04:31.060Z,100894.20
2018-12-01T04:05:09.182Z,100891.01
2018-12-01T04:05:47.507Z,100889.89
2018-12-01T04:06:25.300Z,100890.13
2018-12-01T04:07:03.310Z,100884.63
2018-12-01T04:07:41.159Z,100885.43
2018-12-01T04:08:19.093Z,100882.47
2018-12-01T04:08:57.846Z,100886.79
2018-12-01T04:09:35.791Z,100880.23
2018-12-01T04:10:13.727Z,100881.34
2018-12-01T04:10:51.767Z,100882.70
2018-12-01T04:11:29.680Z,100874.06
2018-12-01T04:12:07.637Z,100875.16
2018-12-01T04:12:45.427Z,100877.87
2018-12-01T04:13:23.216Z,100875.16
2018-12-01T04:14:01.095Z,100872.44
2018-12-01T04:14:39.147Z,100863.18
2018-12-01T04:15:16.880Z,100868.12
2018-12-01T04:15:54.910Z,100866.99
2018-12-01T04:16:32.803Z,100865.40
2018-12-01T04:17:10.789Z,100862.44
2018-12-01T04:17:48.534Z,100861.72
2018-12-01T04:18:27.113Z,100866.05
2018-12-01T04:19:05.303Z,100865.40
2018-12-01T04:19:43.386Z,100852.30
2018-12-01T04:20:26.275Z,100854.13
2018-12-01T04:21:06.943Z,100853.25
2018-12-01T04:21:47.991Z,100851.00
2018-12-01T04:22:25.943Z,100847.66
2018-12-01T04:23:05.106Z,100849.73
2018-12-01T04:23:43.111Z,100854.28
2018-12-01T04:24:21.099Z,100850.52
2018-12-01T04:24:58.888Z,100853.70
2018-12-01T04:25:36.646Z,100848.67
2018-12-01T04:26:14.690Z,100848.91
2018-12-01T04:26:52.599Z,100851.54
2018-12-01T04:27:30.572Z,100844.89
2018-12-01T04:28:08.744Z,100840.43
2018-12-01T04:28:46.962Z,100842.03
2018-12-01T04:29:24.753Z,100840.67
2018-12-01T04:30:04.281Z,100838.27
2018-12-01T04:30:42.185Z,100839.78
2018-12-01T04:31:20.897Z,100840.19
2018-12-01T04:31:58.741Z,100849.21
2018-12-01T04:32:36.801Z,100842.17
2018-12-01T04:33:14.725Z,100843.77
2018-12-01T04:33:52.697Z,100842.03
2018-12-01T04:34:30.631Z,100840.20
2018-12-01T04:35:08.944Z,100838.52
2018-12-01T04:35:46.864Z,100842.52
2018-12-01T04:36:25.656Z,100836.90
2018-12-01T04:37:03.859Z,100828.09
2018-12-01T04:37:42.322Z,100831.28
2018-12-01T04:38:20.255Z,100831.62
2018-12-01T04:38:58.237Z,100832.34
2018-12-01T04:39:37.500Z,100827.84
2018-12-01T04:40:16.553Z,100834.73
2018-12-01T04:40:54.558Z,100832.88
2018-12-01T04:41:32.482Z,100825.88
2018-12-01T04:42:10.504Z,100823.87
2018-12-01T04:42:48.896Z,100827.30
2018-12-01T04:43:26.797Z,100821.94
2018-12-01T04:44:04.694Z,100823.62
2018-12-01T04:44:42.783Z,100825.95
2018-12-01T04:45:21.590Z,100826.03
2018-12-01T04:45:59.861Z,100819.39
2018-12-01T04:46:38.131Z,100819.63
2018-12-01T04:47:16.193Z,100817.95
2018-12-01T04:47:54.207Z,100822.27
2018-12-01T04:48:32.827Z,100817.07
2018-12-01T04:49:10.929Z,100816.59
2018-12-01T04:49:48.811Z,100820.44
2018-12-01T04:50:27.546Z,100815.53
2018-12-01T04:51:05.704Z,100810.15
2018-12-01T04:51:43.724Z,100811.83
2018-12-01T04:52:22.202Z,100810.04
2018-12-01T04:53:00.382Z,100807.48
2018-12-01T04:53:39.412Z,100807.24
2018-12-01T04:54:17.389Z,100805.56
2018-12-01T04:54:56.630Z,100803.96
2018-12-01T04:55:34.587Z,100801.80
2018-12-01T04:56:12.718Z,100801.24
2018-12-01T04:56:50.679Z,100800.84
2018-12-01T04:57:28.885Z,100801.64
2018-12-01T04:58:07.224Z,100797.56
2018-12-01T04:58:45.526Z,100795.48
2018-12-01T04:59:23.627Z,100795.48
2018-12-01T05:00:01.546Z,100800.41
2018-12-01T05:00:39.578Z,100796.66
2018-12-01T05:01:17.628Z,100795.38
2018-12-01T05:01:55.776Z,100788.17
2018-12-01T05:02:33.676Z,100788.02
2018-12-01T05:03:11.527Z,100790.25
2018-12-01T05:03:50.301Z,100786.17
2018-12-01T05:04:28.087Z,100786.19
2018-12-01T05:05:06.210Z,100788.02
2018-12-01T05:05:44.159Z,100788.42
2018-12-01T05:06:22.139Z,100783.73
2018-12-01T05:07:00.078Z,100780.14
2018-12-01T05:07:38.220Z,100780.46
2018-12-01T05:08:16.287Z,100780.55
2018-12-01T05:08:54.227Z,100780.55
2018-12-01T05:09:32.150Z,100780.22
2018-12-01T05:10:20.858Z,100777.34
2018-12-01T05:10:58.715Z,100773.03
2018-12-01T05:11:36.828Z,100779.10
2018-12-01T05:12:14.920Z,100773.03
2018-12-01T05:12:52.913Z,100768.71
2018-12-01T05:13:30.669Z,100765.99
2018-12-01T05:14:08.557Z,100769.43
2018-12-01T05:14:46.305Z,100771.19
2018-12-01T05:15:24.290Z,100769.77
2018-12-01T05:16:02.055Z,100766.31
2018-12-01T05:16:39.925Z,100762.98
2018-12-01T05:17:17.721Z,100761.53
2018-12-01T05:17:55.507Z,100762.42
2018-12-01T05:18:33.359Z,100756.91
2018-12-01T05:19:11.836Z,100747.39
2018-12-01T05:19:49.675Z,100752.27
2018-12-01T05:20:27.915Z,100748.25
2018-12-01T05:21:05.763Z,100741.54
2018-12-01T05:21:43.548Z,100744.92
2018-12-01T05:22:21.358Z,100739.64
2018-12-01T05:22:59.188Z,100740.35
2018-12-01T05:23:36.942Z,100737.07
2018-12-01T05:24:14.884Z,100738.99
2018-12-01T05:24:52.842Z,100735.01
2018-12-01T05:25:30.760Z,100733.17
2018-12-01T05:26:08.686Z,100732.05
2018-12-01T05:26:46.721Z,100732.77
2018-12-01T05:27:24.715Z,100736.61
2018-12-01T05:28:02.805Z,100737.55
2018-12-01T05:28:40.577Z,100733.23
2018-12-01T05:29:18.465Z,100732.59
2018-12-01T05:29:56.371Z,100727.16
2018-12-01T05:30:34.368Z,100727.16
2018-12-01T05:31:12.568Z,100727.16
2018-12-01T05:31:50.422Z,100729.45
2018-12-01T05:32:28.383Z,100727.69
2018-12-01T05:33:06.377Z,100725.44
2018-12-01T05:33:44.379Z,100724.82
2018-12-01T05:34:22.277Z,100722.58
2018-12-01T05:35:00.180Z,100732.89
2018-12-01T05:35:37.982Z,100727.45
2018-12-01T05:36:15.945Z,100725.38
2018-12-01T05:36:53.719Z,100727.78
2018-12-01T05:37:31.575Z,100720.00
2018-12-01T05:38:09.554Z,100715.92
2018-12-01T05:38:47.811Z,100708.65
2018-12-01T05:39:25.765Z,100713.20
2018-12-01T05:40:03.697Z,100710.24
2018-12-01T05:40:44.767Z,100700.96
2018-12-01T05:41:22.817Z,100699.59
2018-12-01T05:42:00.878Z,100700.66
2018-12-01T05:42:38.895Z,100696.88
2018-12-01T05:43:16.841Z,100694.66
2018-12-01T05:43:54.679Z,100693.86
2018-12-01T05:44:32.760Z,100690.08
2018-12-01T05:45:24.709Z,100699.30
2018-12-01T05:46:02.574Z,100686.50
2018-12-01T05:46:40.621Z,100690.31
2018-12-01T05:47:18.682Z,100684.16
2018-12-01T05:47:57.241Z,100678.96
2018-12-01T05:48:35.235Z,100676.24
2018-12-01T05:49:13.517Z,100676.57
2018-12-01T05:49:51.512Z,100680.97
2018-12-01T05:50:29.368Z,100677.78
2018-12-01T05:51:07.406Z,100673.47
2018-12-01T05:51:45.584Z,100669.80
2018-12-01T05:52:23.828Z,100673.41
2018-12-01T05:53:02.141Z,100673.32
2018-12-01T05:53:40.032Z,100673.32
2018-12-01T05:54:17.925Z,100670.04
2018-12-01T05:54:55.924Z,100675.24
2018-12-01T05:55:33.849Z,100672.28
2018-12-01T05:56:11.844Z,100668.30
2018-12-01T05:56:49.713Z,100663.83
2018-12-01T05:57:27.817Z,100663.33
2018-12-01T05:58:05.914Z,100669.83
2018-12-01T05:58:43.932Z,100658.86
2018-12-01T05:59:21.861Z,100653.92
2018-12-01T05:59:59.876Z,100649.58
2018-12-01T06:00:38.116Z,100651.21
2018-12-01T06:01:16.143Z,100650.87
2018-12-01T06:01:54.005Z,100644.56
2018-12-01T06:02:31.856Z,100640.66
2018-12-01T06:03:10.473Z,100650.87
2018-12-01T06:03:48.361Z,100641.05
2018-12-01T06:04:27.565Z,100641.28
2018-12-01T06:05:05.650Z,100642.31
2018-12-01T06:05:43.543Z,100645.45
2018-12-01T06:06:21.324Z,100639.77
2018-12-01T06:06:59.248Z,100633.36
2018-12-01T06:07:37.167Z,100635.36
2018-12-01T06:08:15.235Z,100631.52
2018-12-01T06:08:53.221Z,100635.84
2018-12-01T06:09:31.198Z,100635.45
2018-12-01T06:10:25.432Z,100624.82
2018-12-01T06:11:03.500Z,100633.69
2018-12-01T06:11:41.563Z,100629.61
2018-12-01T06:12:19.818Z,100626.65
2018-12-01T06:13:02.555Z,100624.31
2018-12-01T06:13:40.670Z,100626.98
2018-12-01T06:14:18.804Z,100625.44
2018-12-01T06:14:56.896Z,100628.95
2018-12-01T06:15:35.057Z,100627.51
2018-12-01T06:16:13.154Z,100625.26
2018-12-01T06:16:51.229Z,100623.28
2018-12-01T06:17:29.216Z,100622.63
2018-12-01T06:18:07.388Z,100620.37
2018-12-01T06:18:45.515Z,100623.71
2018-12-01T06:19:23.689Z,100615.70
2018-12-01T06:20:01.618Z,100617.00
2018-12-01T06:20:39.769Z,100616.77
2018-12-01T06:21:17.745Z,100614.42
2018-12-01T06:21:55.857Z,100614.57
2018-12-01T06:22:33.805Z,100617.52
2018-12-01T06:23:11.836Z,100617.38
2018-12-01T06:23:49.971Z,100614.94
2018-12-01T06:24:28.313Z,100613.77
2018-12-01T06:25:06.016Z,100609.68
2018-12-01T06:25:44.002Z,100608.09
2018-12-01T06:26:22.266Z,100609.13
2018-12-01T06:27:00.195Z,100609.54
2018-12-01T06:27:38.183Z,100602.89
2018-12-01T06:28:16.040Z,100607.53
2018-12-01T06:28:53.937Z,100607.34
2018-12-01T06:29:31.948Z,100602.41
2018-12-01T06:30:12.480Z,100601.52
2018-12-01T06:30:50.498Z,100595.34
2018-12-01T06:31:28.517Z,100591.50
2018-12-01T06:32:06.395Z,100591.96
2018-12-01T06:32:44.301Z,100596.98
2018-12-01T06:33:22.248Z,100592.34
2018-12-01T06:34:00.229Z,100586.58
2018-12-01T06:34:38.056Z,100593.05
2018-12-01T06:35:15.977Z,100591.36
2018-12-01T06:35:53.856Z,100583.52
2018-12-01T06:36:31.866Z,100581.04
2018-12-01T06:37:10.102Z,100577.19
2018-12-01T06:37:48.117Z,100579.91
2018-12-01T06:38:26.218Z,100576.63
2018-12-01T06:39:04.137Z,100578.79
2018-12-01T06:39:42.067Z,100577.29
2018-12-01T06:40:21.071Z,100575.59
2018-12-01T06:40:59.147Z,100575.69
2018-12-01T06:41:37.007Z,100572.41
2018-12-01T06:42:14.998Z,100572.97
2018-12-01T06:42:53.297Z,100567.62
2018-12-01T06:43:31.257Z,100566.83
2018-12-01T06:44:09.066Z,100566.27
2018-12-01T06:44:47.054Z,100564.91
2018-12-01T06:45:24.971Z,100562.61
2018-12-01T06:46:02.819Z,100558.30
2018-12-01T06:46:40.910Z,100557.83
2018-12-01T06:47:18.894Z,100552.72
2018-12-01T06:47:56.728Z,100553.05
2018-12-01T06:48:34.639Z,100550.09
2018-12-01T06:49:12.495Z,100544.98
2018-12-01T06:49:50.404Z,100546.91
2018-12-01T06:50:30.982Z,100543.39
2018-12-01T06:51:09.030Z,100537.78
2018-12-01T06:51:47.077Z,100540.50
2018-12-01T06:52:24.844Z,100537.78
2018-12-01T06:53:02.535Z,100541.39
2018-12-01T06:53:40.331Z,100543.88
2018-12-01T06:54:18.244Z,100539.00
2018-12-01T06:54:55.959Z,100536.84
2018-12-01T06:55:33.898Z,100533.19
2018-12-01T06:56:11.836Z,100541.34
2018-12-01T06:56:49.775Z,100534.31
2018-12-01T06:57:27.734Z,100539.19
2018-12-01T06:58:05.637Z,100540.54
2018-12-01T06:58:43.853Z,100541.34
2018-12-01T06:59:21.508Z,100538.62
2018-12-01T06:59:59.300Z,100532.45
2018-12-01T07:00:37.106Z,100541.49
2018-12-01T07:01:15.130Z,100529.91
2018-12-01T07:01:53.069Z,100538.95
2018-12-01T07:02:31.027Z,100537.98
2018-12-01T07:03:09.160Z,100530.48
2018-12-01T07:03:47.172Z,100538.16
2018-12-01T07:04:25.279Z,100539.05
2018-12-01T07:05:03.000Z,100538.82
2018-12-01T07:05:41.694Z,100533.95
2018-12-01T07:06:19.734Z,100536.75
2018-12-01T07:06:57.464Z,100541.72
2018-12-01T07:07:35.289Z,100542.37
2018-12-01T07:08:13.286Z,100538.94
2018-12-01T07:08:51.498Z,100541.42
2018-12-01T07:09:29.353Z,100539.00
2018-12-01T07:10:08.268Z,100545.23
2018-12-01T07:10:46.313Z,100548.51
2018-12-01T07:11:24.361Z,100546.35
2018-12-01T07:12:02.385Z,100543.16
2018-12-01T07:12:40.418Z,100539.33
2018-12-01T07:13:18.199Z,100534.12
2018-12-01T07:13:56.282Z,100537.49
2018-12-01T07:14:34.119Z,100537.25
2018-12-01T07:15:16.573Z,100529.75
2018-12-01T07:15:54.550Z,100533.83
2018-12-01T07:16:32.295Z,100538.79
2018-12-01T07:17:10.702Z,100537.20
2018-12-01T07:17:48.496Z,100531.61